sensor_id;sensor_type;location;lat;lon;timestamp;P1;durP1;ratioP1;P2;durP2;ratioP2
37971;SDS011;23794;48.234;8.344;2022-10-26T00:01:09;5.28;;;0.93;;
37971;SDS011;23794;48.234;8.344;2022-10-26T00:03:39;4.82;;;1.00;;
37971;SDS011;23794;48.234;8.344;2022-10-26T00:06:08;5.18;;;1.00;;
37971;SDS011;23794;48.234;8.344;2022-10-26T00:08:42;8.30;;;1.65;;
37971;SDS011;23794;48.234;8.344;2022-10-26T00:11:10;4.80;;;1.10;;
37971;SDS011;23794;48.234;8.344;2022-10-26T00:13:38;4.38;;;0.90;;
37971;SDS011;23794;48.234;8.344;2022-10-26T00:16:10;3.75;;;1.33;;
37971;SDS011;23794;48.234;8.344;2022-10-26T00:18:45;3.05;;;1.30;;
37971;SDS011;23794;48.234;8.344;2022-10-26T00:21:12;2.95;;;1.20;;
37971;SDS011;23794;48.234;8.344;2022-10-26T00:23:39;3.42;;;1.30;;
37971;SDS011;23794;48.234;8.344;2022-10-26T00:26:07;2.88;;;1.00;;
37971;SDS011;23794;48.234;8.344;2022-10-26T00:28:34;5.63;;;1.20;;
37971;SDS011;23794;48.234;8.344;2022-10-26T00:31:03;1.73;;;1.00;;
37971;SDS011;23794;48.234;8.344;2022-10-26T00:33:31;3.28;;;1.20;;
37971;SDS011;23794;48.234;8.344;2022-10-26T00:35:58;2.97;;;1.23;;
37971;SDS011;23794;48.234;8.344;2022-10-26T00:38:25;4.45;;;1.10;;
37971;SDS011;23794;48.234;8.344;2022-10-26T00:40:52;5.85;;;1.85;;
37971;SDS011;23794;48.234;8.344;2022-10-26T00:45:48;6.47;;;1.70;;
37971;SDS011;23794;48.234;8.344;2022-10-26T00:48:24;3.83;;;1.20;;
37971;SDS011;23794;48.234;8.344;2022-10-26T00:50:54;3.28;;;1.27;;
37971;SDS011;23794;48.234;8.344;2022-10-26T00:53:23;7.45;;;1.20;;
37971;SDS011;23794;48.234;8.344;2022-10-26T00:55:51;3.10;;;1.23;;
37971;SDS011;23794;48.234;8.344;2022-10-26T00:58:18;2.60;;;0.98;;
37971;SDS011;23794;48.234;8.344;2022-10-26T01:00:46;3.47;;;1.00;;
37971;SDS011;23794;48.234;8.344;2022-10-26T01:03:14;7.57;;;1.58;;
37971;SDS011;23794;48.234;8.344;2022-10-26T01:05:42;5.20;;;1.30;;
37971;SDS011;23794;48.234;8.344;2022-10-26T01:08:11;2.88;;;1.05;;
37971;SDS011;23794;48.234;8.344;2022-10-26T01:10:39;5.10;;;1.65;;
37971;SDS011;23794;48.234;8.344;2022-10-26T01:13:07;6.72;;;1.77;;
37971;SDS011;23794;48.234;8.344;2022-10-26T01:31:48;5.35;;;1.20;;
37971;SDS011;23794;48.234;8.344;2022-10-26T01:34:27;7.13;;;1.27;;
37971;SDS011;23794;48.234;8.344;2022-10-26T01:37:08;6.80;;;1.35;;
37971;SDS011;23794;48.234;8.344;2022-10-26T01:39:46;4.40;;;1.17;;
37971;SDS011;23794;48.234;8.344;2022-10-26T01:42:17;5.78;;;2.17;;
37971;SDS011;23794;48.234;8.344;2022-10-26T01:44:48;2.67;;;0.75;;
37971;SDS011;23794;48.234;8.344;2022-10-26T01:47:20;4.65;;;1.42;;
37971;SDS011;23794;48.234;8.344;2022-10-26T01:49:52;3.20;;;1.10;;
37971;SDS011;23794;48.234;8.344;2022-10-26T01:52:23;2.72;;;0.80;;
37971;SDS011;23794;48.234;8.344;2022-10-26T01:54:50;9.95;;;1.35;;
37971;SDS011;23794;48.234;8.344;2022-10-26T01:57:18;2.78;;;0.80;;
37971;SDS011;23794;48.234;8.344;2022-10-26T02:05:16;4.57;;;1.40;;
37971;SDS011;23794;48.234;8.344;2022-10-26T02:16:32;3.38;;;1.13;;
37971;SDS011;23794;48.234;8.344;2022-10-26T02:19:29;3.42;;;1.30;;
37971;SDS011;23794;48.234;8.344;2022-10-26T02:22:17;3.30;;;1.35;;
37971;SDS011;23794;48.234;8.344;2022-10-26T02:24:47;3.15;;;1.10;;
37971;SDS011;23794;48.234;8.344;2022-10-26T02:27:28;2.97;;;1.02;;
37971;SDS011;23794;48.234;8.344;2022-10-26T02:29:59;3.33;;;1.45;;
37971;SDS011;23794;48.234;8.344;2022-10-26T02:32:29;1.80;;;1.20;;
37971;SDS011;23794;48.234;8.344;2022-10-26T02:35:00;2.13;;;0.95;;
37971;SDS011;23794;48.234;8.344;2022-10-26T02:37:28;3.28;;;1.00;;
37971;SDS011;23794;48.234;8.344;2022-10-26T02:39:56;4.30;;;1.52;;
37971;SDS011;23794;48.234;8.344;2022-10-26T02:42:27;3.40;;;1.23;;
37971;SDS011;23794;48.234;8.344;2022-10-26T02:44:54;3.47;;;1.20;;
37971;SDS011;23794;48.234;8.344;2022-10-26T02:47:30;2.60;;;1.60;;
37971;SDS011;23794;48.234;8.344;2022-10-26T02:49:57;3.63;;;1.10;;
37971;SDS011;23794;48.234;8.344;2022-10-26T03:00:08;3.35;;;1.10;;
37971;SDS011;23794;48.234;8.344;2022-10-26T03:02:37;5.38;;;1.20;;
37971;SDS011;23794;48.234;8.344;2022-10-26T03:05:05;4.60;;;1.63;;
37971;SDS011;23794;48.234;8.344;2022-10-26T03:07:35;5.90;;;1.33;;
37971;SDS011;23794;48.234;8.344;2022-10-26T03:10:02;7.70;;;1.75;;
37971;SDS011;23794;48.234;8.344;2022-10-26T03:12:29;6.68;;;1.98;;
37971;SDS011;23794;48.234;8.344;2022-10-26T03:14:56;9.57;;;1.63;;
37971;SDS011;23794;48.234;8.344;2022-10-26T03:17:22;6.10;;;1.40;;
37971;SDS011;23794;48.234;8.344;2022-10-26T03:19:49;3.85;;;1.23;;
37971;SDS011;23794;48.234;8.344;2022-10-26T03:22:16;5.03;;;1.90;;
37971;SDS011;23794;48.234;8.344;2022-10-26T03:24:43;7.80;;;2.65;;
37971;SDS011;23794;48.234;8.344;2022-10-26T03:27:09;5.95;;;1.92;;
37971;SDS011;23794;48.234;8.344;2022-10-26T03:29:36;2.85;;;2.08;;
37971;SDS011;23794;48.234;8.344;2022-10-26T03:32:03;5.88;;;3.03;;
37971;SDS011;23794;48.234;8.344;2022-10-26T03:34:30;7.63;;;2.35;;
37971;SDS011;23794;48.234;8.344;2022-10-26T03:36:56;3.92;;;2.17;;
37971;SDS011;23794;48.234;8.344;2022-10-26T03:39:23;4.35;;;2.15;;
37971;SDS011;23794;48.234;8.344;2022-10-26T03:41:50;5.68;;;1.92;;
37971;SDS011;23794;48.234;8.344;2022-10-26T03:46:48;2.35;;;1.52;;
37971;SDS011;23794;48.234;8.344;2022-10-26T03:49:15;2.50;;;1.60;;
37971;SDS011;23794;48.234;8.344;2022-10-26T03:51:42;6.32;;;1.80;;
37971;SDS011;23794;48.234;8.344;2022-10-26T03:54:09;4.20;;;1.85;;
37971;SDS011;23794;48.234;8.344;2022-10-26T03:56:35;8.00;;;1.70;;
37971;SDS011;23794;48.234;8.344;2022-10-26T03:59:02;4.50;;;2.40;;
37971;SDS011;23794;48.234;8.344;2022-10-26T04:01:29;8.40;;;3.20;;
37971;SDS011;23794;48.234;8.344;2022-10-26T04:03:56;4.53;;;2.70;;
37971;SDS011;23794;48.234;8.344;2022-10-26T04:06:23;3.25;;;2.33;;
37971;SDS011;23794;48.234;8.344;2022-10-26T04:08:49;5.95;;;3.40;;
37971;SDS011;23794;48.234;8.344;2022-10-26T04:11:17;8.30;;;4.82;;
37971;SDS011;23794;48.234;8.344;2022-10-26T04:13:43;9.65;;;5.88;;
37971;SDS011;23794;48.234;8.344;2022-10-26T04:16:10;14.73;;;8.60;;
37971;SDS011;23794;48.234;8.344;2022-10-26T04:18:37;14.32;;;9.63;;
37971;SDS011;23794;48.234;8.344;2022-10-26T04:21:03;10.52;;;6.45;;
37971;SDS011;23794;48.234;8.344;2022-10-26T04:23:30;14.13;;;8.65;;
37971;SDS011;23794;48.234;8.344;2022-10-26T04:25:57;11.50;;;8.80;;
37971;SDS011;23794;48.234;8.344;2022-10-26T04:28:24;10.80;;;7.28;;
37971;SDS011;23794;48.234;8.344;2022-10-26T04:30:51;10.57;;;7.78;;
37971;SDS011;23794;48.234;8.344;2022-10-26T04:33:17;12.70;;;6.13;;
37971;SDS011;23794;48.234;8.344;2022-10-26T04:35:44;10.82;;;5.22;;
37971;SDS011;23794;48.234;8.344;2022-10-26T04:38:11;11.13;;;5.55;;
37971;SDS011;23794;48.234;8.344;2022-10-26T04:40:38;8.27;;;4.82;;
37971;SDS011;23794;48.234;8.344;2022-10-26T04:43:05;9.02;;;4.45;;
37971;SDS011;23794;48.234;8.344;2022-10-26T04:45:32;11.63;;;4.57;;
37971;SDS011;23794;48.234;8.344;2022-10-26T04:48:03;15.48;;;5.03;;
37971;SDS011;23794;48.234;8.344;2022-10-26T04:50:35;12.52;;;4.97;;
37971;SDS011;23794;48.234;8.344;2022-10-26T04:53:03;7.15;;;3.90;;
37971;SDS011;23794;48.234;8.344;2022-10-26T04:55:31;8.65;;;4.38;;
37971;SDS011;23794;48.234;8.344;2022-10-26T04:57:59;9.27;;;3.97;;
37971;SDS011;23794;48.234;8.344;2022-10-26T05:00:27;9.48;;;4.07;;
37971;SDS011;23794;48.234;8.344;2022-10-26T05:02:59;7.53;;;3.17;;
37971;SDS011;23794;48.234;8.344;2022-10-26T05:05:26;6.90;;;3.50;;
37971;SDS011;23794;48.234;8.344;2022-10-26T05:07:53;6.15;;;2.72;;
37971;SDS011;23794;48.234;8.344;2022-10-26T05:10:23;6.37;;;3.30;;
37971;SDS011;23794;48.234;8.344;2022-10-26T05:12:54;7.60;;;3.00;;
37971;SDS011;23794;48.234;8.344;2022-10-26T05:15:22;8.13;;;3.72;;
37971;SDS011;23794;48.234;8.344;2022-10-26T05:17:53;6.28;;;3.80;;
37971;SDS011;23794;48.234;8.344;2022-10-26T05:20:22;7.40;;;3.10;;
37971;SDS011;23794;48.234;8.344;2022-10-26T05:22:55;4.30;;;2.47;;
37971;SDS011;23794;48.234;8.344;2022-10-26T05:25:27;7.35;;;2.60;;
37971;SDS011;23794;48.234;8.344;2022-10-26T05:28:00;6.10;;;2.85;;
37971;SDS011;23794;48.234;8.344;2022-10-26T05:30:29;5.70;;;3.35;;
37971;SDS011;23794;48.234;8.344;2022-10-26T05:32:57;7.20;;;3.50;;
37971;SDS011;23794;48.234;8.344;2022-10-26T05:35:26;4.68;;;2.55;;
37971;SDS011;23794;48.234;8.344;2022-10-26T05:37:53;5.65;;;3.08;;
37971;SDS011;23794;48.234;8.344;2022-10-26T05:40:20;5.25;;;4.13;;
37971;SDS011;23794;48.234;8.344;2022-10-26T05:42:47;6.82;;;4.20;;
37971;SDS011;23794;48.234;8.344;2022-10-26T05:45:17;6.85;;;3.25;;
37971;SDS011;23794;48.234;8.344;2022-10-26T05:47:44;5.30;;;2.95;;
37971;SDS011;23794;48.234;8.344;2022-10-26T05:50:12;6.53;;;2.90;;
37971;SDS011;23794;48.234;8.344;2022-10-26T05:55:13;6.30;;;2.80;;
37971;SDS011;23794;48.234;8.344;2022-10-26T05:57:41;4.75;;;3.28;;
37971;SDS011;23794;48.234;8.344;2022-10-26T06:00:09;6.15;;;3.50;;
37971;SDS011;23794;48.234;8.344;2022-10-26T06:02:51;8.20;;;3.22;;
37971;SDS011;23794;48.234;8.344;2022-10-26T06:05:57;8.35;;;3.00;;
37971;SDS011;23794;48.234;8.344;2022-10-26T06:08:26;7.40;;;3.00;;
37971;SDS011;23794;48.234;8.344;2022-10-26T06:10:55;7.15;;;3.15;;
37971;SDS011;23794;48.234;8.344;2022-10-26T06:13:24;6.28;;;3.50;;
37971;SDS011;23794;48.234;8.344;2022-10-26T06:29:26;5.55;;;2.83;;
37971;SDS011;23794;48.234;8.344;2022-10-26T06:32:01;5.80;;;3.20;;
37971;SDS011;23794;48.234;8.344;2022-10-26T06:34:30;5.72;;;3.10;;
37971;SDS011;23794;48.234;8.344;2022-10-26T06:36:59;8.90;;;3.65;;
37971;SDS011;23794;48.234;8.344;2022-10-26T06:39:27;6.68;;;3.45;;
37971;SDS011;23794;48.234;8.344;2022-10-26T06:41:56;5.60;;;2.88;;
37971;SDS011;23794;48.234;8.344;2022-10-26T06:44:23;8.75;;;2.85;;
37971;SDS011;23794;48.234;8.344;2022-10-26T06:47:25;5.85;;;3.15;;
37971;SDS011;23794;48.234;8.344;2022-10-26T06:49:55;6.57;;;2.60;;
37971;SDS011;23794;48.234;8.344;2022-10-26T06:52:32;6.28;;;2.47;;
37971;SDS011;23794;48.234;8.344;2022-10-26T06:55:11;6.10;;;2.55;;
37971;SDS011;23794;48.234;8.344;2022-10-26T06:57:39;4.28;;;2.42;;
37971;SDS011;23794;48.234;8.344;2022-10-26T07:00:21;7.00;;;3.05;;
37971;SDS011;23794;48.234;8.344;2022-10-26T07:02:50;7.70;;;3.03;;
37971;SDS011;23794;48.234;8.344;2022-10-26T07:05:18;4.43;;;2.50;;
37971;SDS011;23794;48.234;8.344;2022-10-26T07:07:45;7.60;;;2.90;;
37971;SDS011;23794;48.234;8.344;2022-10-26T07:10:13;6.15;;;3.25;;
37971;SDS011;23794;48.234;8.344;2022-10-26T07:12:40;5.75;;;2.47;;
37971;SDS011;23794;48.234;8.344;2022-10-26T07:15:07;9.23;;;2.75;;
37971;SDS011;23794;48.234;8.344;2022-10-26T07:17:45;3.38;;;2.35;;
37971;SDS011;23794;48.234;8.344;2022-10-26T07:20:14;6.60;;;2.25;;
37971;SDS011;23794;48.234;8.344;2022-10-26T07:22:43;4.32;;;2.00;;
37971;SDS011;23794;48.234;8.344;2022-10-26T07:25:10;6.28;;;2.60;;
37971;SDS011;23794;48.234;8.344;2022-10-26T07:27:37;3.80;;;2.05;;
37971;SDS011;23794;48.234;8.344;2022-10-26T07:30:04;5.47;;;2.20;;
37971;SDS011;23794;48.234;8.344;2022-10-26T07:32:32;3.47;;;2.10;;
37971;SDS011;23794;48.234;8.344;2022-10-26T07:34:58;8.75;;;2.13;;
37971;SDS011;23794;48.234;8.344;2022-10-26T07:37:25;6.07;;;2.38;;
37971;SDS011;23794;48.234;8.344;2022-10-26T07:39:52;5.57;;;2.00;;
37971;SDS011;23794;48.234;8.344;2022-10-26T07:42:19;6.28;;;1.88;;
37971;SDS011;23794;48.234;8.344;2022-10-26T07:44:46;5.10;;;1.92;;
37971;SDS011;23794;48.234;8.344;2022-10-26T07:47:13;8.50;;;3.05;;
37971;SDS011;23794;48.234;8.344;2022-10-26T07:49:39;8.57;;;2.30;;
37971;SDS011;23794;48.234;8.344;2022-10-26T07:52:06;8.32;;;2.75;;
37971;SDS011;23794;48.234;8.344;2022-10-26T07:54:34;4.70;;;1.92;;
37971;SDS011;23794;48.234;8.344;2022-10-26T07:57:00;6.25;;;2.10;;
37971;SDS011;23794;48.234;8.344;2022-10-26T07:59:28;8.38;;;2.50;;
37971;SDS011;23794;48.234;8.344;2022-10-26T08:01:55;8.88;;;2.40;;
37971;SDS011;23794;48.234;8.344;2022-10-26T08:04:21;7.25;;;2.22;;
37971;SDS011;23794;48.234;8.344;2022-10-26T08:06:50;5.72;;;2.20;;
37971;SDS011;23794;48.234;8.344;2022-10-26T08:09:18;6.70;;;2.10;;
37971;SDS011;23794;48.234;8.344;2022-10-26T08:11:45;6.32;;;2.17;;
37971;SDS011;23794;48.234;8.344;2022-10-26T08:14:12;7.63;;;2.72;;
37971;SDS011;23794;48.234;8.344;2022-10-26T08:16:39;6.70;;;2.35;;
37971;SDS011;23794;48.234;8.344;2022-10-26T08:19:06;9.38;;;2.47;;
37971;SDS011;23794;48.234;8.344;2022-10-26T08:21:32;8.50;;;2.80;;
37971;SDS011;23794;48.234;8.344;2022-10-26T08:24:06;10.80;;;3.33;;
37971;SDS011;23794;48.234;8.344;2022-10-26T08:26:33;7.82;;;2.50;;
37971;SDS011;23794;48.234;8.344;2022-10-26T08:29:00;5.43;;;2.17;;
37971;SDS011;23794;48.234;8.344;2022-10-26T08:31:27;8.80;;;2.17;;
37971;SDS011;23794;48.234;8.344;2022-10-26T08:33:53;10.25;;;2.53;;
37971;SDS011;23794;48.234;8.344;2022-10-26T08:36:22;6.55;;;2.53;;
37971;SDS011;23794;48.234;8.344;2022-10-26T08:38:50;7.35;;;2.38;;
37971;SDS011;23794;48.234;8.344;2022-10-26T08:41:19;22.33;;;3.67;;
37971;SDS011;23794;48.234;8.344;2022-10-26T08:46:52;7.47;;;2.15;;
37971;SDS011;23794;48.234;8.344;2022-10-26T08:49:28;7.50;;;2.30;;
37971;SDS011;23794;48.234;8.344;2022-10-26T08:51:59;7.32;;;2.67;;
37971;SDS011;23794;48.234;8.344;2022-10-26T08:57:10;6.47;;;2.55;;
37971;SDS011;23794;48.234;8.344;2022-10-26T08:59:49;7.75;;;2.85;;
37971;SDS011;23794;48.234;8.344;2022-10-26T09:02:24;8.60;;;2.70;;
37971;SDS011;23794;48.234;8.344;2022-10-26T09:04:51;8.65;;;2.45;;
37971;SDS011;23794;48.234;8.344;2022-10-26T09:07:23;6.55;;;2.40;;
37971;SDS011;23794;48.234;8.344;2022-10-26T09:10:03;7.50;;;2.13;;
37971;SDS011;23794;48.234;8.344;2022-10-26T09:15:27;6.88;;;3.50;;
37971;SDS011;23794;48.234;8.344;2022-10-26T09:21:07;5.55;;;2.17;;
37971;SDS011;23794;48.234;8.344;2022-10-26T09:23:53;9.13;;;3.42;;
37971;SDS011;23794;48.234;8.344;2022-10-26T09:26:32;4.25;;;1.77;;
37971;SDS011;23794;48.234;8.344;2022-10-26T09:29:11;10.38;;;2.33;;
37971;SDS011;23794;48.234;8.344;2022-10-26T09:31:40;5.43;;;1.90;;
37971;SDS011;23794;48.234;8.344;2022-10-26T09:34:15;8.05;;;2.22;;
37971;SDS011;23794;48.234;8.344;2022-10-26T09:36:51;9.05;;;2.00;;
37971;SDS011;23794;48.234;8.344;2022-10-26T09:41:54;8.25;;;2.50;;
37971;SDS011;23794;48.234;8.344;2022-10-26T09:44:53;7.07;;;2.38;;
37971;SDS011;23794;48.234;8.344;2022-10-26T09:47:29;8.77;;;2.55;;
37971;SDS011;23794;48.234;8.344;2022-10-26T09:50:06;9.98;;;2.65;;
37971;SDS011;23794;48.234;8.344;2022-10-26T09:52:43;4.70;;;1.90;;
37971;SDS011;23794;48.234;8.344;2022-10-26T09:55:10;5.70;;;1.90;;
37971;SDS011;23794;48.234;8.344;2022-10-26T09:57:39;6.10;;;2.10;;
37971;SDS011;23794;48.234;8.344;2022-10-26T10:00:15;6.22;;;2.00;;
37971;SDS011;23794;48.234;8.344;2022-10-26T10:02:44;8.98;;;2.17;;
37971;SDS011;23794;48.234;8.344;2022-10-26T10:05:32;11.68;;;2.95;;
37971;SDS011;23794;48.234;8.344;2022-10-26T10:08:18;8.07;;;2.67;;
37971;SDS011;23794;48.234;8.344;2022-10-26T10:10:57;7.03;;;1.85;;
37971;SDS011;23794;48.234;8.344;2022-10-26T10:13:30;6.57;;;2.35;;
37971;SDS011;23794;48.234;8.344;2022-10-26T10:18:29;3.97;;;1.70;;
37971;SDS011;23794;48.234;8.344;2022-10-26T10:20:56;7.28;;;2.30;;
37971;SDS011;23794;48.234;8.344;2022-10-26T10:23:29;5.32;;;1.98;;
37971;SDS011;23794;48.234;8.344;2022-10-26T10:26:11;5.13;;;1.58;;
37971;SDS011;23794;48.234;8.344;2022-10-26T10:28:41;5.95;;;1.92;;
37971;SDS011;23794;48.234;8.344;2022-10-26T10:31:21;5.25;;;2.33;;
37971;SDS011;23794;48.234;8.344;2022-10-26T10:33:52;4.30;;;1.77;;
37971;SDS011;23794;48.234;8.344;2022-10-26T10:36:20;7.47;;;2.30;;
37971;SDS011;23794;48.234;8.344;2022-10-26T10:38:51;5.80;;;2.20;;
37971;SDS011;23794;48.234;8.344;2022-10-26T10:41:31;6.30;;;1.95;;
37971;SDS011;23794;48.234;8.344;2022-10-26T10:44:05;6.03;;;2.03;;
37971;SDS011;23794;48.234;8.344;2022-10-26T10:46:38;6.47;;;2.35;;
37971;SDS011;23794;48.234;8.344;2022-10-26T10:49:08;6.28;;;1.80;;
37971;SDS011;23794;48.234;8.344;2022-10-26T10:51:45;3.22;;;1.40;;
37971;SDS011;23794;48.234;8.344;2022-10-26T10:54:19;5.35;;;2.00;;
37971;SDS011;23794;48.234;8.344;2022-10-26T10:57:14;7.90;;;2.13;;
37971;SDS011;23794;48.234;8.344;2022-10-26T11:10:52;5.00;;;1.85;;
37971;SDS011;23794;48.234;8.344;2022-10-26T11:13:36;7.30;;;2.05;;
37971;SDS011;23794;48.234;8.344;2022-10-26T11:16:10;7.70;;;1.73;;
37971;SDS011;23794;48.234;8.344;2022-10-26T11:18:57;5.60;;;1.85;;
37971;SDS011;23794;48.234;8.344;2022-10-26T11:21:45;7.85;;;2.33;;
37971;SDS011;23794;48.234;8.344;2022-10-26T11:32:09;8.18;;;1.80;;
37971;SDS011;23794;48.234;8.344;2022-10-26T11:37:45;5.10;;;2.13;;
37971;SDS011;23794;48.234;8.344;2022-10-26T11:45:44;8.77;;;2.38;;
37971;SDS011;23794;48.234;8.344;2022-10-26T11:48:22;6.60;;;2.28;;
37971;SDS011;23794;48.234;8.344;2022-10-26T11:50:56;17.20;;;2.95;;
37971;SDS011;23794;48.234;8.344;2022-10-26T11:53:27;9.45;;;1.92;;
37971;SDS011;23794;48.234;8.344;2022-10-26T11:55:57;5.55;;;2.03;;
37971;SDS011;23794;48.234;8.344;2022-10-26T11:58:25;6.93;;;2.72;;
37971;SDS011;23794;48.234;8.344;2022-10-26T12:03:26;4.85;;;1.63;;
37971;SDS011;23794;48.234;8.344;2022-10-26T12:05:57;3.53;;;1.50;;
37971;SDS011;23794;48.234;8.344;2022-10-26T12:13:34;6.88;;;1.90;;
37971;SDS011;23794;48.234;8.344;2022-10-26T12:18:49;7.68;;;2.53;;
37971;SDS011;23794;48.234;8.344;2022-10-26T12:21:26;6.60;;;2.10;;
37971;SDS011;23794;48.234;8.344;2022-10-26T12:23:56;6.03;;;2.17;;
37971;SDS011;23794;48.234;8.344;2022-10-26T12:34:21;9.05;;;2.38;;
37971;SDS011;23794;48.234;8.344;2022-10-26T12:39:29;8.25;;;2.30;;
37971;SDS011;23794;48.234;8.344;2022-10-26T12:49:58;10.60;;;2.90;;
37971;SDS011;23794;48.234;8.344;2022-10-26T12:52:33;6.97;;;3.08;;
37971;SDS011;23794;48.234;8.344;2022-10-26T13:00:16;11.27;;;3.17;;
37971;SDS011;23794;48.234;8.344;2022-10-26T13:08:40;6.95;;;2.25;;
37971;SDS011;23794;48.234;8.344;2022-10-26T13:11:34;6.72;;;2.40;;
37971;SDS011;23794;48.234;8.344;2022-10-26T13:14:13;4.72;;;2.20;;
37971;SDS011;23794;48.234;8.344;2022-10-26T13:16:48;7.28;;;1.88;;
37971;SDS011;23794;48.234;8.344;2022-10-26T13:19:48;7.13;;;1.80;;
37971;SDS011;23794;48.234;8.344;2022-10-26T13:22:28;8.43;;;2.10;;
37971;SDS011;23794;48.234;8.344;2022-10-26T13:24:57;6.88;;;2.22;;
37971;SDS011;23794;48.234;8.344;2022-10-26T13:32:52;10.75;;;3.10;;
37971;SDS011;23794;48.234;8.344;2022-10-26T13:35:22;5.00;;;2.00;;
37971;SDS011;23794;48.234;8.344;2022-10-26T13:37:50;7.80;;;2.35;;
37971;SDS011;23794;48.234;8.344;2022-10-26T13:40:21;12.80;;;2.40;;
37971;SDS011;23794;48.234;8.344;2022-10-26T13:42:54;9.63;;;2.53;;
37971;SDS011;23794;48.234;8.344;2022-10-26T13:45:27;6.25;;;2.15;;
37971;SDS011;23794;48.234;8.344;2022-10-26T13:48:05;9.73;;;2.13;;
37971;SDS011;23794;48.234;8.344;2022-10-26T13:50:52;7.07;;;2.13;;
37971;SDS011;23794;48.234;8.344;2022-10-26T13:59:00;12.15;;;3.03;;
37971;SDS011;23794;48.234;8.344;2022-10-26T14:01:34;7.18;;;2.80;;
37971;SDS011;23794;48.234;8.344;2022-10-26T14:04:17;7.75;;;2.33;;
37971;SDS011;23794;48.234;8.344;2022-10-26T14:06:52;7.35;;;2.17;;
37971;SDS011;23794;48.234;8.344;2022-10-26T14:09:20;9.75;;;2.95;;
37971;SDS011;23794;48.234;8.344;2022-10-26T14:11:48;13.60;;;2.53;;
37971;SDS011;23794;48.234;8.344;2022-10-26T14:14:36;9.77;;;2.50;;
37971;SDS011;23794;48.234;8.344;2022-10-26T14:17:04;9.98;;;3.13;;
37971;SDS011;23794;48.234;8.344;2022-10-26T14:19:35;10.57;;;2.83;;
37971;SDS011;23794;48.234;8.344;2022-10-26T14:22:03;15.65;;;2.60;;
37971;SDS011;23794;48.234;8.344;2022-10-26T14:24:31;6.80;;;2.17;;
37971;SDS011;23794;48.234;8.344;2022-10-26T14:27:13;9.18;;;2.03;;
37971;SDS011;23794;48.234;8.344;2022-10-26T14:29:44;10.88;;;2.55;;
37971;SDS011;23794;48.234;8.344;2022-10-26T14:32:31;11.38;;;2.65;;
37971;SDS011;23794;48.234;8.344;2022-10-26T14:34:58;7.45;;;2.20;;
37971;SDS011;23794;48.234;8.344;2022-10-26T14:40:04;11.00;;;2.80;;
37971;SDS011;23794;48.234;8.344;2022-10-26T14:42:33;7.25;;;2.50;;
37971;SDS011;23794;48.234;8.344;2022-10-26T14:45:04;12.35;;;3.70;;
37971;SDS011;23794;48.234;8.344;2022-10-26T14:47:55;8.93;;;2.30;;
37971;SDS011;23794;48.234;8.344;2022-10-26T14:50:22;9.20;;;3.10;;
37971;SDS011;23794;48.234;8.344;2022-10-26T14:52:53;10.88;;;2.53;;
37971;SDS011;23794;48.234;8.344;2022-10-26T14:55:22;18.15;;;3.92;;
37971;SDS011;23794;48.234;8.344;2022-10-26T14:57:50;4.20;;;2.30;;
37971;SDS011;23794;48.234;8.344;2022-10-26T15:00:20;11.35;;;2.70;;
37971;SDS011;23794;48.234;8.344;2022-10-26T15:02:49;9.20;;;2.47;;
37971;SDS011;23794;48.234;8.344;2022-10-26T15:08:00;6.25;;;2.30;;
37971;SDS011;23794;48.234;8.344;2022-10-26T15:13:13;10.15;;;2.20;;
37971;SDS011;23794;48.234;8.344;2022-10-26T15:15:55;10.93;;;2.70;;
37971;SDS011;23794;48.234;8.344;2022-10-26T15:18:25;9.88;;;2.38;;
37971;SDS011;23794;48.234;8.344;2022-10-26T15:20:58;11.85;;;2.40;;
37971;SDS011;23794;48.234;8.344;2022-10-26T15:23:25;5.25;;;2.10;;
37971;SDS011;23794;48.234;8.344;2022-10-26T15:25:55;11.18;;;2.78;;
37971;SDS011;23794;48.234;8.344;2022-10-26T15:28:31;7.53;;;2.65;;
37971;SDS011;23794;48.234;8.344;2022-10-26T15:33:41;9.20;;;2.70;;
37971;SDS011;23794;48.234;8.344;2022-10-26T15:36:18;8.27;;;2.67;;
37971;SDS011;23794;48.234;8.344;2022-10-26T15:38:46;7.35;;;2.45;;
37971;SDS011;23794;48.234;8.344;2022-10-26T15:41:23;10.27;;;2.50;;
37971;SDS011;23794;48.234;8.344;2022-10-26T15:43:56;7.25;;;2.10;;
37971;SDS011;23794;48.234;8.344;2022-10-26T15:46:30;6.38;;;2.30;;
37971;SDS011;23794;48.234;8.344;2022-10-26T15:48:59;10.18;;;2.72;;
37971;SDS011;23794;48.234;8.344;2022-10-26T15:51:28;12.32;;;2.97;;
37971;SDS011;23794;48.234;8.344;2022-10-26T15:53:58;8.43;;;2.40;;
37971;SDS011;23794;48.234;8.344;2022-10-26T15:56:28;10.20;;;2.95;;
37971;SDS011;23794;48.234;8.344;2022-10-26T15:58:56;8.85;;;3.05;;
37971;SDS011;23794;48.234;8.344;2022-10-26T16:01:25;8.10;;;3.25;;
37971;SDS011;23794;48.234;8.344;2022-10-26T16:03:53;4.75;;;2.65;;
37971;SDS011;23794;48.234;8.344;2022-10-26T16:09:03;9.45;;;2.75;;
37971;SDS011;23794;48.234;8.344;2022-10-26T16:11:31;15.75;;;3.13;;
37971;SDS011;23794;48.234;8.344;2022-10-26T16:13:58;6.55;;;2.53;;
37971;SDS011;23794;48.234;8.344;2022-10-26T16:16:29;15.43;;;4.07;;
37971;SDS011;23794;48.234;8.344;2022-10-26T16:18:56;11.48;;;3.75;;
37971;SDS011;23794;48.234;8.344;2022-10-26T16:21:43;11.98;;;3.72;;
37971;SDS011;23794;48.234;8.344;2022-10-26T16:24:10;6.72;;;2.75;;
37971;SDS011;23794;48.234;8.344;2022-10-26T16:26:37;15.73;;;3.45;;
37971;SDS011;23794;48.234;8.344;2022-10-26T16:29:03;9.10;;;2.90;;
37971;SDS011;23794;48.234;8.344;2022-10-26T16:31:30;15.05;;;2.75;;
37971;SDS011;23794;48.234;8.344;2022-10-26T16:33:57;16.58;;;3.53;;
37971;SDS011;23794;48.234;8.344;2022-10-26T16:36:29;12.65;;;3.03;;
37971;SDS011;23794;48.234;8.344;2022-10-26T16:38:58;8.30;;;2.40;;
37971;SDS011;23794;48.234;8.344;2022-10-26T16:41:24;10.23;;;3.00;;
37971;SDS011;23794;48.234;8.344;2022-10-26T16:43:51;9.77;;;2.80;;
37971;SDS011;23794;48.234;8.344;2022-10-26T16:46:19;8.93;;;2.85;;
37971;SDS011;23794;48.234;8.344;2022-10-26T16:48:47;13.27;;;2.47;;
37971;SDS011;23794;48.234;8.344;2022-10-26T16:51:18;8.35;;;2.95;;
37971;SDS011;23794;48.234;8.344;2022-10-26T16:53:54;13.82;;;3.47;;
37971;SDS011;23794;48.234;8.344;2022-10-26T16:56:22;10.90;;;3.20;;
37971;SDS011;23794;48.234;8.344;2022-10-26T16:58:51;10.60;;;3.88;;
37971;SDS011;23794;48.234;8.344;2022-10-26T17:01:18;10.32;;;2.70;;
37971;SDS011;23794;48.234;8.344;2022-10-26T17:03:47;7.55;;;2.72;;
37971;SDS011;23794;48.234;8.344;2022-10-26T17:06:16;6.82;;;2.78;;
37971;SDS011;23794;48.234;8.344;2022-10-26T17:08:43;10.65;;;3.10;;
37971;SDS011;23794;48.234;8.344;2022-10-26T17:11:17;9.10;;;3.15;;
37971;SDS011;23794;48.234;8.344;2022-10-26T17:13:45;10.70;;;2.90;;
37971;SDS011;23794;48.234;8.344;2022-10-26T17:16:17;12.43;;;3.28;;
37971;SDS011;23794;48.234;8.344;2022-10-26T17:18:46;10.60;;;2.55;;
37971;SDS011;23794;48.234;8.344;2022-10-26T17:21:15;11.20;;;3.15;;
37971;SDS011;23794;48.234;8.344;2022-10-26T17:23:44;7.03;;;2.58;;
37971;SDS011;23794;48.234;8.344;2022-10-26T17:26:12;14.82;;;4.13;;
37971;SDS011;23794;48.234;8.344;2022-10-26T17:28:40;10.48;;;2.92;;
37971;SDS011;23794;48.234;8.344;2022-10-26T17:31:08;9.93;;;3.17;;
37971;SDS011;23794;48.234;8.344;2022-10-26T17:33:39;8.85;;;3.47;;
37971;SDS011;23794;48.234;8.344;2022-10-26T17:36:11;10.00;;;3.38;;
37971;SDS011;23794;48.234;8.344;2022-10-26T17:38:39;11.52;;;3.20;;
37971;SDS011;23794;48.234;8.344;2022-10-26T17:41:08;7.88;;;3.55;;
37971;SDS011;23794;48.234;8.344;2022-10-26T17:43:37;16.48;;;3.33;;
37971;SDS011;23794;48.234;8.344;2022-10-26T17:46:12;9.07;;;2.95;;
37971;SDS011;23794;48.234;8.344;2022-10-26T17:48:39;7.05;;;2.97;;
37971;SDS011;23794;48.234;8.344;2022-10-26T17:51:13;8.52;;;3.10;;
37971;SDS011;23794;48.234;8.344;2022-10-26T17:53:42;13.25;;;2.97;;
37971;SDS011;23794;48.234;8.344;2022-10-26T17:56:12;13.30;;;3.42;;